Time;durP1;ratioP1;P1;durP2;ratioP2;P2;SDS_P1;SDS_P2;PMS_P1;PMS_P2;Temp;Humidity;BMP_temperature;BMP_pressure;BME280_temperature;BME280_humidity;BME280_pressure;Samples;Min_cycle;Max_cycle;Signal;HPM_P1;HPM_P2
2023/11/15 00:02:26;;;;;;;0.52;0.15;;;;;;;8.72;100.00;97196.03;15271115;19;20490;-53
2023/11/15 00:07:56;;;;;;;0.75;0.25;;;;;;;8.80;100.00;97204.03;15272356;19;20018;-54
2023/11/15 00:13:20;;;;;;;0.65;0.17;;;;;;;8.81;100.00;97200.31;15270428;19;20019;-54
2023/11/15 00:18:45;;;;;;;0.20;0.20;;;;;;;8.89;100.00;97213.69;15277256;19;20761;-50
2023/11/15 00:24:13;;;;;;;0.22;0.10;;;;;;;8.91;100.00;97211.66;15264352;19;20025;-51
2023/11/15 00:29:38;;;;;;;0.45;0.10;;;;;;;8.90;100.00;97212.66;15277139;19;20489;-50
2023/11/15 00:35:02;;;;;;;1.77;0.10;;;;;;;8.87;100.00;97207.69;15267343;19;20010;-54
2023/11/15 00:40:29;;;;;;;0.60;0.10;;;;;;;8.81;100.00;97232.56;15274076;19;20021;-52
2023/11/15 00:45:55;;;;;;;0.30;0.20;;;;;;;8.73;100.00;97272.91;15267181;19;20014;-50
2023/11/15 00:51:20;;;;;;;0.15;0.10;;;;;;;8.51;100.00;97272.69;15273978;19;20018;-50
2023/11/15 00:56:47;;;;;;;0.30;0.10;;;;;;;8.28;100.00;97305.66;15267991;19;20010;-48
2023/11/15 01:02:13;;;;;;;0.65;0.10;;;;;;;8.09;100.00;97319.47;15265941;19;20408;-51
2023/11/15 01:07:38;;;;;;;0.10;0.10;;;;;;;7.92;100.00;97340.97;15266575;19;20022;-50
2023/11/15 01:13:06;;;;;;;0.82;0.30;;;;;;;7.82;100.00;97367.97;15271117;19;20054;-47
2023/11/15 01:18:30;;;;;;;0.17;0.17;;;;;;;7.81;100.00;97373.50;15269299;19;20011;-51
2023/11/15 01:23:55;;;;;;;0.35;0.22;;;;;;;7.79;100.00;97403.16;15260119;19;20018;-49
2023/11/15 01:29:22;;;;;;;0.17;0.17;;;;;;;7.78;100.00;97425.59;15268387;19;20471;-51
2023/11/15 01:34:48;;;;;;;0.10;0.10;;;;;;;7.73;100.00;97425.28;15255873;19;20491;-49
2023/11/15 01:40:13;;;;;;;0.20;0.20;;;;;;;7.68;100.00;97441.88;15271594;19;20018;-49
2023/11/15 01:45:41;;;;;;;0.20;0.17;;;;;;;7.67;100.00;97460.78;15264381;19;20014;-51
2023/11/15 01:51:06;;;;;;;0.50;0.30;;;;;;;7.62;100.00;97466.66;15267328;19;20022;-52
2023/11/15 01:56:31;;;;;;;0.20;0.20;;;;;;;7.61;100.00;97464.97;15264745;19;20018;-49
2023/11/15 02:02:06;;;;;;;0.55;0.10;;;;;;;7.61;100.00;97473.03;15254206;19;20021;-55
2023/11/15 02:07:31;;;;;;;0.45;0.15;;;;;;;7.62;100.00;97493.47;15261735;19;20010;-55
2023/11/15 02:12:56;;;;;;;0.85;0.20;;;;;;;7.65;100.00;97492.28;15274495;19;20094;-52
2023/11/15 02:18:23;;;;;;;0.20;0.20;;;;;;;7.68;100.00;97505.38;15284414;19;20031;-58
2023/11/15 02:23:53;;;;;;;0.63;0.20;;;;;;;7.70;100.00;97525.63;15275692;19;20019;-56
2023/11/15 02:29:19;;;;;;;1.67;0.30;;;;;;;7.74;100.00;97544.94;15282192;19;20015;-52
2023/11/15 02:34:43;;;;;;;0.38;0.20;;;;;;;7.79;100.00;97544.44;15267074;19;20003;-56
2023/11/15 02:40:12;;;;;;;0.63;0.35;;;;;;;7.82;100.00;97565.56;15282538;19;20504;-53
2023/11/15 02:45:36;;;;;;;0.98;0.28;;;;;;;7.86;100.00;97582.97;15271846;19;20022;-52
2023/11/15 02:51:01;;;;;;;0.20;0.20;;;;;;;7.92;100.00;97593.06;15279733;19;20011;-56
2023/11/15 02:56:28;;;;;;;0.85;0.20;;;;;;;7.96;100.00;97598.94;15280363;19;20014;-54
2023/11/15 03:01:53;;;;;;;0.63;0.30;;;;;;;7.97;100.00;97598.75;15272968;19;20036;-50
2023/11/15 03:07:17;;;;;;;1.70;0.40;;;;;;;7.96;100.00;97607.81;15266565;19;20019;-59
2023/11/15 03:12:45;;;;;;;0.93;0.40;;;;;;;8.00;100.00;97601.13;15275902;19;20372;-53
2023/11/15 03:18:10;;;;;;;0.45;0.30;;;;;;;7.99;100.00;97620.91;15281076;19;20014;-56
2023/11/15 03:23:35;;;;;;;0.15;0.15;;;;;;;8.01;100.00;97645.72;15269849;19;20491;-53
2023/11/15 03:29:02;;;;;;;0.68;0.20;;;;;;;8.05;100.00;97634.66;15277898;19;20017;-52
2023/11/15 03:34:28;;;;;;;0.30;0.17;;;;;;;8.08;100.00;97642.38;15275557;19;20471;-54
2023/11/15 03:39:53;;;;;;;1.20;0.50;;;;;;;8.13;100.00;97653.44;15273839;19;20010;-54
2023/11/15 03:45:21;;;;;;;0.40;0.22;;;;;;;8.15;100.00;97680.97;15269486;19;20014;-55
2023/11/15 03:50:45;;;;;;;0.50;0.20;;;;;;;8.18;100.00;97670.72;15273689;19;20023;-51
2023/11/15 03:56:11;;;;;;;0.20;0.20;;;;;;;8.23;100.00;97677.47;15272305;19;20022;-53
2023/11/15 04:01:39;;;;;;;0.88;0.30;;;;;;;8.23;100.00;97686.34;15274051;19;20018;-52
2023/11/15 04:07:14;;;;;;;1.02;0.20;;;;;;;8.16;100.00;97688.84;15274325;19;20033;-52
2023/11/15 04:12:39;;;;;;;1.27;0.30;;;;;;;8.17;100.00;97711.16;15269369;19;20018;-54
2023/11/15 04:18:08;;;;;;;2.72;0.40;;;;;;;8.23;100.00;97705.13;15273804;19;20014;-56
2023/11/15 04:23:39;;;;;;;1.73;0.40;;;;;;;8.25;100.00;97705.81;15269640;19;20015;-53
2023/11/15 04:29:04;;;;;;;1.87;0.50;;;;;;;8.26;100.00;97720.91;15271264;19;20018;-54
2023/11/15 04:34:31;;;;;;;1.45;0.77;;;;;;;8.27;100.00;97724.41;15267368;19;20680;-54
2023/11/15 04:39:56;;;;;;;1.60;0.38;;;;;;;8.27;100.00;97714.53;15272391;19;20014;-54
2023/11/15 04:45:21;;;;;;;1.05;0.40;;;;;;;8.32;100.00;97762.34;15265769;19;20052;-55
2023/11/15 04:50:49;;;;;;;2.00;0.40;;;;;;;8.33;100.00;97748.75;15272251;19;20022;-52
2023/11/15 04:56:14;;;;;;;1.42;0.45;;;;;;;8.37;100.00;97767.22;15273508;19;20036;-54
2023/11/15 05:01:45;;;;;;;1.80;0.40;;;;;;;8.41;100.00;97763.22;15268952;19;20352;-55
2023/11/15 05:07:13;;;;;;;1.63;0.40;;;;;;;8.40;100.00;97767.72;15271315;19;20021;-55
2023/11/15 05:12:38;;;;;;;1.10;0.40;;;;;;;8.47;100.00;97767.91;15270714;19;20025;-57
2023/11/15 05:18:03;;;;;;;1.17;0.60;;;;;;;8.51;100.00;97763.06;15268119;19;20010;-56
2023/11/15 05:23:30;;;;;;;0.90;0.40;;;;;;;8.51;100.00;97773.81;15267699;19;20022;-57
2023/11/15 05:28:55;;;;;;;1.10;0.32;;;;;;;8.52;100.00;97773.69;15269307;19;20014;-55
2023/11/15 05:34:19;;;;;;;0.98;0.32;;;;;;;8.55;100.00;97785.91;15264982;19;20025;-53
2023/11/15 05:39:46;;;;;;;2.22;0.70;;;;;;;8.56;100.00;97779.53;15270417;19;20010;-55
2023/11/15 05:45:12;;;;;;;0.98;0.40;;;;;;;8.55;100.00;97796.66;15269903;19;20018;-55
2023/11/15 05:50:38;;;;;;;2.75;0.40;;;;;;;8.56;100.00;97792.97;15277837;19;20017;-55
2023/11/15 05:56:06;;;;;;;2.65;0.45;;;;;;;8.59;100.00;97803.38;15283225;19;20022;-56
2023/11/15 06:01:39;;;;;;;0.73;0.30;;;;;;;8.58;100.00;97813.28;15282363;19;20025;-54
2023/11/15 06:07:05;;;;;;;0.63;0.40;;;;;;;8.59;100.00;97830.22;15283498;19;20025;-54
2023/11/15 06:12:32;;;;;;;1.17;0.40;;;;;;;8.65;100.00;97824.19;15278690;19;20029;-56
2023/11/15 06:17:57;;;;;;;0.30;0.20;;;;;;;8.70;100.00;97829.06;15281182;19;20010;-57
2023/11/15 06:23:24;;;;;;;1.27;0.30;;;;;;;8.71;100.00;97815.47;15274940;19;20054;-58
2023/11/15 06:28:53;;;;;;;1.27;0.40;;;;;;;8.72;100.00;97819.03;15280774;19;20022;-55
2023/11/15 06:34:18;;;;;;;0.50;0.30;;;;;;;8.70;100.00;97834.44;15277375;19;20011;-55
2023/11/15 06:39:42;;;;;;;0.70;0.25;;;;;;;8.71;100.00;97849.56;15282034;19;20015;-56
2023/11/15 06:45:12;;;;;;;1.83;0.50;;;;;;;8.60;100.00;97859.59;15272788;19;20025;-57
2023/11/15 06:50:37;;;;;;;0.98;0.45;;;;;;;8.40;100.00;97860.84;15281588;19;20044;-57
2023/11/15 06:56:02;;;;;;;0.45;0.25;;;;;;;8.27;100.00;97882.75;15276895;19;20594;-57
2023/11/15 07:01:30;;;;;;;0.68;0.40;;;;;;;8.17;100.00;97898.97;15278451;19;20010;-57
2023/11/15 07:06:55;;;;;;;0.40;0.25;;;;;;;8.13;100.00;97906.47;15280101;19;20012;-57
2023/11/15 07:12:19;;;;;;;0.57;0.20;;;;;;;8.16;100.00;97922.25;15277017;19;20459;-58
2023/11/15 07:17:46;;;;;;;0.57;0.30;;;;;;;8.20;100.00;97928.16;15280048;19;20751;-55
2023/11/15 07:23:11;;;;;;;0.75;0.20;;;;;;;8.21;100.00;97935.19;15270742;19;20372;-57
2023/11/15 07:28:42;;;;;;;0.73;0.20;;;;;;;8.22;100.00;97938.75;15277437;19;20018;-56
2023/11/15 07:34:10;;;;;;;0.40;0.30;;;;;;;8.26;100.00;97949.00;15274727;19;20577;-57
2023/11/15 07:39:35;;;;;;;0.28;0.10;;;;;;;8.26;100.00;97973.16;15273719;19;20026;-56
2023/11/15 07:45:01;;;;;;;0.43;0.20;;;;;;;8.30;100.00;97987.91;15273941;19;20015;-57
2023/11/15 07:50:31;;;;;;;0.30;0.20;;;;;;;8.37;100.00;97960.47;15275107;19;20356;-56
2023/11/15 07:55:55;;;;;;;0.32;0.15;;;;;;;8.36;100.00;97956.09;15272359;19;20959;-57
2023/11/15 08:01:22;;;;;;;0.38;0.20;;;;;;;8.35;100.00;97974.03;15277710;19;20597;-55
2023/11/15 08:06:50;;;;;;;0.68;0.20;;;;;;;8.36;100.00;97982.94;15273248;19;20029;-56
2023/11/15 08:12:16;;;;;;;0.13;0.10;;;;;;;8.36;100.00;97991.00;15274800;19;20030;-56
2023/11/15 08:17:41;;;;;;;0.20;0.20;;;;;;;8.35;100.00;98005.41;15277160;19;20467;-57
2023/11/15 08:23:11;;;;;;;0.15;0.10;;;;;;;8.37;100.00;98001.56;15274104;19;20562;-58
2023/11/15 08:28:38;;;;;;;0.28;0.20;;;;;;;8.40;100.00;98014.66;15268280;19;20010;-54
2023/11/15 08:34:05;;;;;;;1.33;0.22;;;;;;;8.52;100.00;98025.19;15267160;19;20033;-56
2023/11/15 08:39:33;;;;;;;0.65;0.35;;;;;;;8.57;100.00;98015.66;15273803;19;20499;-53
2023/11/15 08:44:58;;;;;;;0.45;0.15;;;;;;;8.56;100.00;98027.38;15270335;19;20010;-56
2023/11/15 08:50:22;;;;;;;0.52;0.20;;;;;;;8.66;100.00;98037.16;15271805;19;20050;-57
2023/11/15 08:55:51;;;;;;;0.73;0.30;;;;;;;8.77;100.00;98020.78;15274329;19;20018;-56
2023/11/15 09:01:16;;;;;;;0.52;0.30;;;;;;;8.84;100.00;98047.84;15267682;19;20018;-57
2023/11/15 09:06:52;;;;;;;0.55;0.30;;;;;;;8.85;100.00;98033.41;15272532;19;20035;-57
2023/11/15 09:12:26;;;;;;;0.95;0.30;;;;;;;8.86;100.00;98035.09;15273660;19;20021;-57
2023/11/15 09:17:52;;;;;;;0.43;0.30;;;;;;;8.92;100.00;98054.13;15277718;19;20021;-56
2023/11/15 09:23:17;;;;;;;1.55;0.35;;;;;;;8.99;100.00;98045.44;15283752;19;20018;-55
2023/11/15 09:28:51;;;;;;;0.50;0.30;;;;;;;8.99;100.00;98050.81;15286292;19;20018;-56
2023/11/15 09:34:16;;;;;;;0.63;0.30;;;;;;;9.03;100.00;98046.78;15273121;19;20021;-55
2023/11/15 09:39:41;;;;;;;0.60;0.30;;;;;;;9.12;100.00;98047.66;15287208;19;20011;-57
2023/11/15 09:45:17;;;;;;;1.00;0.40;;;;;;;9.14;100.00;98045.66;15280992;19;20026;-56
2023/11/15 09:50:44;;;;;;;0.68;0.38;;;;;;;9.18;100.00;98050.53;15284032;19;20601;-56
2023/11/15 09:56:11;;;;;;;1.08;0.40;;;;;;;9.19;100.00;98057.59;15287107;19;20006;-56
2023/11/15 10:01:38;;;;;;;0.65;0.50;;;;;;;9.21;100.00;98055.59;15281570;19;20020;-57
2023/11/15 10:07:03;;;;;;;0.50;0.25;;;;;;;9.29;100.00;98056.63;15279769;19;20508;-55
2023/11/15 10:12:27;;;;;;;0.35;0.30;;;;;;;9.41;100.00;98060.72;15288289;19;20013;-55
2023/11/15 10:17:55;;;;;;;1.30;0.35;;;;;;;9.43;100.00;98064.09;15323011;19;20014;-55
2023/11/15 10:23:21;;;;;;;0.82;0.30;;;;;;;9.48;100.00;98066.28;15281153;19;20011;-55
2023/11/15 10:28:49;;;;;;;0.95;0.30;;;;;;;9.49;100.00;98058.03;15280896;19;20010;-55
2023/11/15 10:34:16;;;;;;;0.40;0.30;;;;;;;9.50;100.00;98059.72;15278298;19;20094;-56
2023/11/15 10:39:50;;;;;;;1.85;0.40;;;;;;;9.46;100.00;98069.16;15278537;19;20045;-55
2023/11/15 10:45:22;;;;;;;0.40;0.30;;;;;;;9.41;100.00;98055.34;15275910;19;20018;-54
2023/11/15 10:50:55;;;;;;;0.60;0.30;;;;;;;9.37;100.00;98054.81;15279249;19;20019;-55
2023/11/15 10:56:23;;;;;;;0.60;0.50;;;;;;;9.36;100.00;98068.41;15281915;19;20034;-55
2023/11/15 11:01:49;;;;;;;1.58;0.52;;;;;;;9.38;100.00;98069.09;15277095;19;20713;-55
2023/11/15 11:07:23;;;;;;;1.40;0.40;;;;;;;9.41;100.00;98085.75;15276408;19;20025;-56
2023/11/15 11:12:48;;;;;;;0.93;0.40;;;;;;;9.45;100.00;98080.91;15273419;19;20018;-55
2023/11/15 11:18:21;;;;;;;1.98;0.73;;;;;;;9.48;100.00;98083.25;15278597;19;20033;-57
2023/11/15 11:24:11;;;;;;;0.63;0.50;;;;;;;9.58;100.00;98090.34;15273839;19;20376;-55
2023/11/15 11:29:35;;;;;;;3.00;0.57;;;;;;;9.64;100.00;98106.66;15278265;19;20049;-53
2023/11/15 11:35:40;;;;;;;2.25;0.80;;;;;;;9.53;100.00;98105.13;15271035;19;20018;-56
2023/11/15 11:41:08;;;;;;;1.50;0.68;;;;;;;9.33;100.00;98083.03;15275578;19;20015;-57
2023/11/15 11:46:33;;;;;;;2.40;0.77;;;;;;;9.19;100.00;98081.81;15272085;19;20371;-57
2023/11/15 11:51:59;;;;;;;3.13;0.90;;;;;;;9.08;100.00;98115.16;15272084;19;20025;-57
2023/11/15 11:57:29;;;;;;;2.90;0.90;;;;;;;8.94;100.00;98124.66;15275047;19;20039;-54
2023/11/15 12:02:55;;;;;;;2.33;0.75;;;;;;;8.82;100.00;98135.84;15267801;19;20022;-59
2023/11/15 12:08:26;;;;;;;3.53;0.90;;;;;;;8.72;100.00;98152.88;15271450;19;20078;-56
2023/11/15 12:13:57;;;;;;;2.72;1.00;;;;;;;8.68;100.00;98172.13;15269108;19;20014;-56
2023/11/15 12:19:26;;;;;;;3.87;1.00;;;;;;;8.70;100.00;98186.25;15275752;19;20063;-57
2023/11/15 12:24:51;;;;;;;3.10;1.00;;;;;;;8.73;100.00;98191.31;15269964;19;20275;-58
2023/11/15 12:30:19;;;;;;;4.72;1.30;;;;;;;8.71;100.00;98198.69;15274130;19;20018;-57
2023/11/15 12:35:45;;;;;;;3.50;1.10;;;;;;;8.74;100.00;98214.50;15270251;19;20488;-57
2023/11/15 12:41:11;;;;;;;4.55;1.25;;;;;;;8.77;100.00;98215.03;15273790;19;20022;-54
2023/11/15 12:46:38;;;;;;;3.80;1.10;;;;;;;8.80;100.00;98211.19;15267547;19;20014;-56
2023/11/15 12:52:03;;;;;;;6.65;1.13;;;;;;;8.80;100.00;98224.63;15268748;19;20050;-56
2023/11/15 12:57:28;;;;;;;2.75;1.20;;;;;;;8.79;100.00;98239.91;15274104;19;20011;-55
2023/11/15 13:02:56;;;;;;;2.25;1.00;;;;;;;8.80;100.00;98248.78;15268914;19;20097;-53
2023/11/15 13:08:20;;;;;;;4.00;1.20;;;;;;;8.88;100.00;98254.22;15272030;19;20476;-55
2023/11/15 13:13:48;;;;;;;3.03;1.00;;;;;;;8.88;100.00;98243.47;15012419;19;5002087;-52
2023/11/15 13:19:16;;;;;;;4.53;1.17;;;;;;;8.90;100.00;98297.06;15267325;19;20027;-52
2023/11/15 13:24:42;;;;;;;3.00;0.80;;;;;;;8.67;100.00;98302.91;15266594;19;20015;-54
2023/11/15 13:30:07;;;;;;;1.83;0.70;;;;;;;8.52;100.00;98286.47;15266558;19;20022;-53
2023/11/15 13:35:35;;;;;;;1.95;0.50;;;;;;;8.37;100.00;98288.78;15268763;19;20718;-52
2023/11/15 13:40:59;;;;;;;0.77;0.60;;;;;;;8.26;100.00;98305.09;15269918;19;20038;-55
2023/11/15 13:46:28;;;;;;;1.38;0.50;;;;;;;8.13;100.00;98318.84;15266321;19;20498;-57
2023/11/15 13:51:57;;;;;;;0.75;0.30;;;;;;;7.97;100.00;98309.59;15248610;19;20073;-54
2023/11/15 13:57:22;;;;;;;0.65;0.35;;;;;;;7.88;100.00;98299.75;15263080;19;20019;-55
2023/11/15 14:02:48;;;;;;;0.32;0.20;;;;;;;7.88;100.00;98302.44;15264142;19;20023;-52
2023/11/15 14:08:18;;;;;;;1.00;0.45;;;;;;;7.93;100.00;98297.50;14765762;19;10000569;-55
2023/11/15 14:13:37;;;;;;;0.68;0.32;;;;;;;7.98;100.00;98300.56;15276964;19;20025;-55
2023/11/15 14:19:02;;;;;;;0.63;0.30;;;;;;;7.96;100.00;98302.53;15284117;19;20037;-55
2023/11/15 14:24:30;;;;;;;0.32;0.30;;;;;;;7.97;100.00;98298.88;15272592;19;20658;-55
2023/11/15 14:29:56;;;;;;;0.45;0.30;;;;;;;8.02;100.00;98322.56;15281275;19;20030;-56
2023/11/15 14:35:21;;;;;;;0.77;0.43;;;;;;;8.14;100.00;98331.28;15276191;19;20459;-55
2023/11/15 14:40:48;;;;;;;0.82;0.50;;;;;;;8.29;100.00;98332.47;15281041;19;20022;-57
2023/11/15 14:46:16;;;;;;;1.95;0.50;;;;;;;8.36;100.00;98337.25;15280909;19;20014;-56
2023/11/15 14:51:41;;;;;;;0.95;0.50;;;;;;;8.28;100.00;98338.84;15273989;19;20033;-56
2023/11/15 14:57:10;;;;;;;4.40;0.57;;;;;;;8.17;100.00;98387.34;15271678;19;20480;-55
2023/11/15 15:02:34;;;;;;;2.00;0.60;;;;;;;7.97;100.00;98384.72;15278154;19;20860;-54
2023/11/15 15:08:03;;;;;;;2.22;0.80;;;;;;;7.88;100.00;98379.38;15280318;19;20042;-55
2023/11/15 15:13:31;;;;;;;2.15;0.80;;;;;;;7.81;100.00;98385.31;15277512;19;20519;-55
2023/11/15 15:18:56;;;;;;;1.23;0.82;;;;;;;7.77;100.00;98391.13;15277478;19;20014;-54
2023/11/15 15:24:21;;;;;;;1.40;1.00;;;;;;;7.75;100.00;98412.72;15273196;19;20018;-55
2023/11/15 15:29:49;;;;;;;1.33;1.00;;;;;;;7.72;100.00;98421.88;15273371;19;20480;-55
2023/11/15 15:35:20;;;;;;;2.55;0.90;;;;;;;7.68;100.00;98422.31;15274530;19;20497;-54
2023/11/15 15:40:45;;;;;;;1.67;0.90;;;;;;;7.61;100.00;98427.41;15253889;19;20028;-56
2023/11/15 15:46:14;;;;;;;2.38;0.82;;;;;;;7.59;100.00;98434.72;15277302;19;20046;-54
2023/11/15 15:51:38;;;;;;;3.08;0.88;;;;;;;7.59;100.00;98450.81;15272981;19;20376;-55
2023/11/15 15:57:03;;;;;;;1.85;0.82;;;;;;;7.55;100.00;98450.25;15277926;19;20021;-54
2023/11/15 16:02:34;;;;;;;3.03;0.90;;;;;;;7.48;100.00;98453.63;15269576;19;20349;-52
2023/11/15 16:07:58;;;;;;;2.70;0.90;;;;;;;7.42;100.00;98460.41;15275293;19;20527;-56
2023/11/15 16:13:24;;;;;;;1.58;0.57;;;;;;;7.34;100.00;98461.13;15268587;19;20014;-55
2023/11/15 16:18:54;;;;;;;1.33;0.60;;;;;;;7.31;100.00;98469.44;15271422;19;20014;-55
2023/11/15 16:24:18;;;;;;;2.35;0.70;;;;;;;7.20;100.00;98466.91;15270651;19;20101;-54
2023/11/15 16:29:43;;;;;;;2.42;0.77;;;;;;;7.07;100.00;98465.31;15273276;19;20645;-56
2023/11/15 16:35:10;;;;;;;1.95;0.90;;;;;;;6.92;100.00;98480.94;15265363;19;20713;-56
2023/11/15 16:40:38;;;;;;;2.20;0.80;;;;;;;6.83;100.00;98483.59;15273197;19;20018;-55
2023/11/15 16:46:02;;;;;;;3.67;1.27;;;;;;;6.76;100.00;98485.94;15273110;19;20014;-56
2023/11/15 16:51:30;;;;;;;4.32;1.00;;;;;;;6.77;100.00;98504.53;15270672;19;20014;-54
2023/11/15 16:56:54;;;;;;;3.63;1.00;;;;;;;6.79;100.00;98518.66;15272221;19;20018;-55
2023/11/15 17:02:19;;;;;;;3.88;1.10;;;;;;;6.82;100.00;98527.41;15270691;19;20040;-56
2023/11/15 17:07:46;;;;;;;2.40;0.90;;;;;;;6.90;100.00;98527.56;15264118;19;20010;-53
2023/11/15 17:13:11;;;;;;;2.60;1.00;;;;;;;6.90;100.00;98540.97;15268251;19;20486;-56
2023/11/15 17:18:35;;;;;;;3.30;1.10;;;;;;;6.84;100.00;98539.66;15271999;19;20463;-55
2023/11/15 17:24:04;;;;;;;2.42;1.08;;;;;;;6.81;100.00;98536.41;15264583;19;20020;-56
2023/11/15 17:29:30;;;;;;;2.60;1.10;;;;;;;6.76;100.00;98542.19;15272753;19;20006;-56
2023/11/15 17:34:55;;;;;;;2.72;1.00;;;;;;;6.64;100.00;98533.41;15266788;19;20023;-56
2023/11/15 17:40:23;;;;;;;2.13;1.25;;;;;;;6.50;100.00;98531.91;15274649;19;20025;-56
2023/11/15 17:45:48;;;;;;;4.88;1.52;;;;;;;6.39;100.00;98531.97;15281385;19;20044;-57
2023/11/15 17:51:13;;;;;;;3.45;1.27;;;;;;;6.32;100.00;98540.56;15282705;19;20014;-56
2023/11/15 17:56:41;;;;;;;3.95;1.30;;;;;;;6.24;100.00;98550.22;15283175;19;20014;-56
2023/11/15 18:02:06;;;;;;;2.35;1.35;;;;;;;6.27;100.00;98549.94;15277869;19;20007;-55
2023/11/15 18:07:38;;;;;;;4.38;1.60;;;;;;;6.39;100.00;98548.91;15271389;19;20489;-56
2023/11/15 18:13:06;;;;;;;3.85;1.60;;;;;;;6.47;100.00;98564.28;15271638;19;20029;-53
2023/11/15 18:18:34;;;;;;;3.72;1.40;;;;;;;6.52;100.00;98564.75;15284139;19;20014;-56
2023/11/15 18:24:00;;;;;;;3.80;1.40;;;;;;;6.65;100.00;98572.56;15276964;19;20026;-55
2023/11/15 18:29:27;;;;;;;3.13;1.23;;;;;;;6.75;100.00;98576.16;15257474;19;20018;-55
2023/11/15 18:34:51;;;;;;;3.80;1.27;;;;;;;6.86;100.00;98563.66;15274730;19;20014;-52
2023/11/15 18:40:17;;;;;;;3.83;1.38;;;;;;;6.94;100.00;98574.53;15278914;19;20590;-56
2023/11/15 18:45:45;;;;;;;5.40;1.50;;;;;;;6.97;100.00;98560.88;15275377;19;20627;-55
2023/11/15 18:51:10;;;;;;;3.45;1.30;;;;;;;6.99;100.00;98561.59;15278531;19;20018;-55
2023/11/15 18:56:35;;;;;;;3.40;1.15;;;;;;;7.03;100.00;98563.00;15280030;19;20006;-56
2023/11/15 19:02:02;;;;;;;4.93;1.42;;;;;;;7.09;100.00;98567.84;15277810;19;20341;-55
2023/11/15 19:07:36;;;;;;;3.13;1.13;;;;;;;7.09;100.00;98549.09;15272200;19;20361;-54
2023/11/15 19:13:01;;;;;;;3.38;1.00;;;;;;;7.06;100.00;98535.97;15273709;19;20014;-56
2023/11/15 19:18:29;;;;;;;3.63;0.95;;;;;;;7.01;100.00;98521.28;15274491;19;20357;-53
2023/11/15 19:23:54;;;;;;;3.45;1.33;;;;;;;6.96;100.00;98508.28;15276150;19;20025;-56
2023/11/15 19:29:19;;;;;;;3.65;1.00;;;;;;;6.88;100.00;98495.56;15280340;19;20052;-57
2023/11/15 19:34:46;;;;;;;4.57;1.20;;;;;;;6.77;100.00;98504.53;15272410;19;20623;-53
2023/11/15 19:40:13;;;;;;;4.70;1.13;;;;;;;6.75;100.00;98503.88;15278450;19;20015;-56
2023/11/15 19:45:38;;;;;;;3.28;1.10;;;;;;;6.76;100.00;98526.94;15276861;19;20018;-54
2023/11/15 19:51:06;;;;;;;4.43;1.20;;;;;;;6.81;100.00;98518.53;15270196;19;20020;-57
2023/11/15 19:56:32;;;;;;;4.25;1.27;;;;;;;6.86;100.00;98526.16;15276530;19;20463;-54
2023/11/15 20:01:56;;;;;;;4.70;1.00;;;;;;;6.93;100.00;98532.66;15270545;19;20015;-58
2023/11/15 20:07:31;;;;;;;5.15;1.13;;;;;;;7.09;100.00;98524.97;15267995;19;20365;-55
2023/11/15 20:12:56;;;;;;;3.70;1.00;;;;;;;7.18;100.00;98522.44;15270202;19;20034;-55
2023/11/15 20:18:21;;;;;;;2.20;0.77;;;;;;;7.24;100.00;98522.75;15271300;19;20038;-56
2023/11/15 20:23:48;;;;;;;4.05;1.20;;;;;;;7.29;100.00;98525.00;15265240;19;20054;-56
2023/11/15 20:29:13;;;;;;;4.15;1.02;;;;;;;7.33;100.00;98529.13;15271692;19;20056;-52
2023/11/15 20:34:37;;;;;;;3.08;1.05;;;;;;;7.36;100.00;98515.44;15266510;19;20014;-54
2023/11/15 20:40:05;;;;;;;2.25;0.80;;;;;;;7.39;100.00;98506.28;15274843;19;20019;-57
2023/11/15 20:45:30;;;;;;;2.55;0.80;;;;;;;7.40;100.00;98508.81;15268990;19;20570;-56
2023/11/15 20:50:55;;;;;;;2.58;1.02;;;;;;;7.39;100.00;98500.94;15272653;19;20032;-58
2023/11/15 20:56:22;;;;;;;2.55;0.90;;;;;;;7.35;100.00;98494.97;15265813;19;20107;-58
2023/11/15 21:01:47;;;;;;;2.42;1.00;;;;;;;7.30;100.00;98497.22;15262220;19;20018;-54
2023/11/15 21:07:11;;;;;;;2.72;1.38;;;;;;;7.18;100.00;98498.34;15266041;19;20017;-56
2023/11/15 21:12:39;;;;;;;4.80;1.48;;;;;;;7.06;100.00;98503.81;15268244;19;20029;-54
2023/11/15 21:18:03;;;;;;;3.00;1.40;;;;;;;7.16;100.00;98508.34;15265816;19;20011;-56
2023/11/15 21:23:28;;;;;;;4.05;1.58;;;;;;;7.22;100.00;98518.53;15251889;19;20011;-52
2023/11/15 21:28:58;;;;;;;4.07;1.52;;;;;;;7.23;100.00;98520.22;15261475;19;20017;-54
2023/11/15 21:34:23;;;;;;;4.05;1.20;;;;;;;7.23;100.00;98528.25;15263081;19;20493;-54
2023/11/15 21:39:47;;;;;;;2.08;0.80;;;;;;;7.35;100.00;98524.44;15271789;19;20480;-52
2023/11/15 21:45:16;;;;;;;1.95;0.80;;;;;;;7.42;100.00;98529.28;15265180;19;20029;-55
2023/11/15 21:50:41;;;;;;;2.13;0.80;;;;;;;7.44;100.00;98530.00;15271908;19;20025;-55
2023/11/15 21:56:06;;;;;;;4.38;0.75;;;;;;;7.44;100.00;98522.78;15258251;19;20101;-56
2023/11/15 22:01:34;;;;;;;2.95;0.75;;;;;;;7.54;100.00;98510.22;15268798;19;20022;-51
2023/11/15 22:07:06;;;;;;;2.78;0.90;;;;;;;7.72;100.00;98510.38;15264441;19;21000;-57
2023/11/15 22:12:31;;;;;;;1.42;0.70;;;;;;;7.55;100.00;98498.53;15267307;19;20018;-54
2023/11/15 22:17:59;;;;;;;3.38;0.77;;;;;;;7.46;100.00;98494.00;15268526;19;20014;-53
2023/11/15 22:23:24;;;;;;;3.72;0.70;;;;;;;7.37;100.00;98495.69;15263563;19;20054;-54
2023/11/15 22:28:51;;;;;;;3.20;0.73;;;;;;;7.25;100.00;98486.94;15274396;19;20014;-55
2023/11/15 22:34:18;;;;;;;3.35;0.70;;;;;;;7.25;100.00;98486.94;15281096;19;20098;-55
2023/11/15 22:39:45;;;;;;;1.83;0.55;;;;;;;7.18;100.00;98474.22;15284778;19;20098;-56
2023/11/15 22:45:10;;;;;;;3.05;0.52;;;;;;;7.18;100.00;98466.19;15275647;19;20017;-56
2023/11/15 22:50:39;;;;;;;4.43;0.70;;;;;;;7.16;100.00;98446.72;15280978;19;20011;-53
2023/11/15 22:56:03;;;;;;;2.88;0.85;;;;;;;7.07;100.00;98441.22;15281444;19;20947;-52
2023/11/15 23:01:28;;;;;;;3.53;0.63;;;;;;;7.01;100.00;98444.44;15275322;19;20010;-54
2023/11/15 23:06:57;;;;;;;1.55;0.60;;;;;;;7.02;100.00;98453.31;15278333;19;20030;-54
2023/11/15 23:12:22;;;;;;;2.28;0.63;;;;;;;6.90;100.00;98449.91;15275674;19;20035;-55
2023/11/15 23:17:47;;;;;;;2.22;0.73;;;;;;;6.76;100.00;98457.34;15279746;19;20034;-54
2023/11/15 23:23:15;;;;;;;3.75;0.70;;;;;;;6.66;100.00;98455.63;15277101;19;20011;-52
2023/11/15 23:28:40;;;;;;;1.52;0.60;;;;;;;6.54;100.00;98463.75;15281965;19;20020;-56
2023/11/15 23:34:04;;;;;;;2.38;0.70;;;;;;;6.43;100.00;98472.72;15271787;19;20440;-56
2023/11/15 23:39:32;;;;;;;2.65;0.80;;;;;;;6.33;100.00;98469.13;15279627;19;20014;-53
2023/11/15 23:44:56;;;;;;;7.03;0.77;;;;;;;6.24;100.00;98472.63;15221424;19;20022;-55
2023/11/15 23:50:22;;;;;;;2.15;0.80;;;;;;;6.14;100.00;98478.75;15280379;19;20022;-55
2023/11/15 23:55:50;;;;;;;4.00;0.90;;;;;;;6.04;100.00;98480.53;15275620;19;20623;-55
